スィクティフカル の空港の天気 - METARとTAF

Syktyvkar ( UUYY / SCW ) - ロシア スィクティフカル
飛行場実況気象(Metar)
観測時間08/17 14:30 MSK (08/17 11:30 UTC)
風向・風速不定 1m/s
視程10km以上
天気現象
全天の4割程度の雲 雲底高度 1100m
気温22℃
湿度46%
気圧1018hPa
METARUUYY 171130Z VRB01MPS 9999 SCT036 22/10 Q1018 R36/61D NOSIG RMK QFE755/1006
過去の天気等 Google飛行場航空写真 Wunderground天気予報

過去48時間のMETAR

飛行場予報(TAF)
発表時間: 8/17 14:00 MSK (8/17 11:00 UTC)
予報対象時間: 17日15時 MSK ~ 18日15時 MSK
風向・風速西 3m/s
視程10km以上
全天の8割程度の積乱雲 雲底高度 610m
17日15時 MSK ~ 17日18時 MSK に一時的に
天気現象弱いしゅう雨
全天の8割程度の積乱雲 雲底高度 460m
17日21時 MSK から
風向・風速不定 1m/s
視程4000m
天気現象もや
少しの雲 雲底高度 150m
全天の8割程度の雲 雲底高度 340m
17日23時 MSK ~ 18日6時 MSK に一時的に
視程300m
天気現象
少しの雲 雲底高度 60m
18日9時 MSK から
風向・風速東 3m/s 瞬間風速 8m/s
視程10km以上
全天の8割程度の雲 雲底高度 460m
TAF UUYY 171100Z 1712/1812 28003MPS 9999 BKN020CB
TEMPO 1712/1715 -SHRA BKN015CB
FM171800 VRB01MPS 4000 BR FEW005 BKN011
TEMPO 1720/1803 0300 FG FEW002
FM180600 10003G08MPS 9999 BKN015